Aviation Digital Data Service (ADDS)

Output produced by METARs form (1917 UTC 23 July 2016)
found at http://aviationweather.gov/adds/metars/
 
KRDU 231720Z 2318/2418 VRB05KT P6SM SCT040 SCT200 
     TEMPO 2409/2412 5SM BR